createdAt,value
2022-11-16T00:00:06.282Z,8.36
2022-11-16T00:01:40.332Z,8.27
2022-11-16T00:03:13.284Z,8.34
2022-11-16T00:04:45.382Z,8.36
2022-11-16T00:06:23.716Z,8.33
2022-11-16T00:07:55.896Z,8.38
2022-11-16T00:09:30.319Z,8.39
2022-11-16T00:11:10.702Z,8.37
2022-11-16T00:12:45.234Z,8.39
2022-11-16T00:14:17.163Z,8.36
2022-11-16T00:16:00.266Z,8.36
2022-11-16T00:17:47.266Z,8.34
2022-11-16T00:19:21.799Z,8.34
2022-11-16T00:20:53.658Z,8.33
2022-11-16T00:22:32.062Z,8.33
2022-11-16T00:24:11.398Z,8.33
2022-11-16T00:25:43.379Z,8.33
2022-11-16T00:27:21.220Z,8.32
2022-11-16T00:29:04.056Z,8.29
2022-11-16T00:30:36.903Z,8.32
2022-11-16T00:32:16.524Z,8.32
2022-11-16T00:34:19.486Z,8.32
2022-11-16T00:37:55.612Z,8.20
2022-11-16T00:39:35.276Z,8.24
2022-11-16T00:41:10.391Z,8.22
2022-11-16T00:43:08.660Z,8.23
2022-11-16T00:45:04.777Z,8.25
2022-11-16T00:47:08.139Z,8.23
2022-11-16T00:48:45.733Z,8.25
2022-11-16T00:50:35.611Z,8.23
2022-11-16T00:52:20.467Z,8.20
2022-11-16T00:54:20.555Z,8.23
2022-11-16T00:56:01.392Z,8.24
2022-11-16T00:59:38.960Z,8.16
2022-11-16T01:03:05.757Z,8.19
2022-11-16T01:04:41.145Z,8.16
2022-11-16T01:06:34.127Z,8.20
2022-11-16T01:08:13.056Z,8.23
2022-11-16T01:09:49.169Z,8.24
2022-11-16T01:11:42.389Z,8.26
2022-11-16T01:13:25.466Z,8.24
2022-11-16T01:15:09.789Z,8.22
2022-11-16T01:16:42.634Z,8.19
2022-11-16T01:18:17.220Z,8.14
2022-11-16T01:19:52.604Z,8.20
2022-11-16T01:21:33.383Z,8.23
2022-11-16T01:23:09.008Z,8.23
2022-11-16T01:25:03.678Z,8.20
2022-11-16T01:26:43.666Z,8.14
2022-11-16T01:28:22.293Z,8.07
2022-11-16T01:30:07.744Z,8.10
2022-11-16T01:31:42.282Z,8.04
2022-11-16T01:33:25.350Z,7.97
2022-11-16T01:35:06.484Z,7.97
2022-11-16T01:36:45.270Z,8.03
2022-11-16T01:38:17.384Z,8.06
2022-11-16T01:39:52.929Z,8.07
2022-11-16T01:41:31.981Z,8.07
2022-11-16T01:43:16.164Z,7.98
2022-11-16T01:45:23.432Z,8.08
2022-11-16T01:47:16.472Z,8.08
2022-11-16T01:48:55.712Z,7.98
2022-11-16T01:50:33.913Z,8.00
2022-11-16T01:52:30.818Z,8.07
2022-11-16T01:55:11.366Z,8.06
2022-11-16T01:57:24.380Z,8.02
2022-11-16T01:59:09.538Z,8.06
2022-11-16T02:01:10.989Z,8.09
2022-11-16T02:02:57.979Z,8.09
2022-11-16T02:04:53.253Z,8.07
2022-11-16T02:06:51.286Z,8.09
2022-11-16T02:09:14.351Z,8.07
2022-11-16T02:11:27.920Z,8.10
2022-11-16T02:13:20.661Z,8.07
2022-11-16T02:15:12.154Z,8.08
2022-11-16T02:16:49.906Z,8.05
2022-11-16T02:18:34.112Z,8.04
2022-11-16T02:20:51.533Z,8.07
2022-11-16T02:22:27.298Z,8.04
2022-11-16T02:24:52.945Z,8.04
2022-11-16T02:26:53.177Z,8.01
2022-11-16T02:28:31.816Z,8.01
2022-11-16T02:30:06.512Z,8.00
2022-11-16T02:31:41.128Z,8.00
2022-11-16T02:33:13.375Z,8.01
2022-11-16T02:34:46.357Z,8.02
2022-11-16T02:36:20.506Z,8.04
2022-11-16T02:37:54.376Z,8.04
2022-11-16T02:39:27.215Z,8.06
2022-11-16T02:41:01.601Z,8.10
2022-11-16T02:42:34.889Z,8.15
2022-11-16T02:44:08.924Z,8.15
2022-11-16T02:45:43.635Z,8.16
2022-11-16T02:47:18.408Z,8.11
2022-11-16T02:48:50.973Z,8.12
2022-11-16T02:50:23.324Z,8.15
2022-11-16T02:51:54.913Z,8.16
2022-11-16T02:53:26.515Z,8.15
2022-11-16T02:54:58.137Z,8.10
2022-11-16T02:56:30.024Z,8.12
2022-11-16T02:58:01.999Z,8.12
2022-11-16T02:59:36.070Z,8.12
2022-11-16T03:01:09.470Z,8.09
2022-11-16T03:02:45.078Z,8.10
2022-11-16T03:04:19.294Z,8.08
2022-11-16T03:05:52.435Z,8.07
2022-11-16T03:07:25.748Z,8.11
2022-11-16T03:09:00.099Z,8.10
2022-11-16T03:10:51.673Z,8.12
2022-11-16T03:12:25.189Z,8.10
2022-11-16T03:13:59.136Z,8.16
2022-11-16T03:15:30.793Z,8.12
2022-11-16T03:17:04.901Z,8.15
2022-11-16T03:18:38.536Z,8.12
2022-11-16T03:20:12.858Z,8.15
2022-11-16T03:21:47.049Z,8.14
2022-11-16T03:23:18.670Z,8.15
2022-11-16T03:24:50.358Z,8.16
2022-11-16T03:26:24.208Z,8.16
2022-11-16T03:27:57.899Z,8.17
2022-11-16T03:29:30.918Z,8.17
2022-11-16T03:31:08.387Z,8.17
2022-11-16T03:32:45.850Z,8.20
2022-11-16T03:34:19.449Z,8.20
2022-11-16T03:35:53.211Z,8.22
2022-11-16T03:37:25.816Z,8.22
2022-11-16T03:38:59.856Z,8.23
2022-11-16T03:40:33.018Z,8.26
2022-11-16T03:42:08.533Z,8.23
2022-11-16T03:43:40.705Z,8.24
2022-11-16T03:45:13.256Z,8.26
2022-11-16T03:46:45.847Z,8.27
2022-11-16T03:48:19.373Z,8.29
2022-11-16T03:49:51.046Z,8.28
2022-11-16T03:51:22.664Z,8.28
2022-11-16T03:52:54.282Z,8.30
2022-11-16T03:54:25.917Z,8.23
2022-11-16T03:55:58.326Z,8.24
2022-11-16T03:57:30.346Z,8.27
2022-11-16T03:59:02.205Z,8.26
2022-11-16T04:00:35.418Z,8.25
2022-11-16T04:02:07.636Z,8.30
2022-11-16T04:03:41.123Z,8.36
2022-11-16T04:05:51.638Z,8.39
2022-11-16T04:07:42.951Z,8.32
2022-11-16T04:09:34.295Z,8.31
2022-11-16T04:11:27.307Z,8.31
2022-11-16T04:13:18.077Z,8.34
2022-11-16T04:15:08.445Z,8.34
2022-11-16T04:16:58.837Z,8.34
2022-11-16T04:18:49.106Z,8.35
2022-11-16T04:20:41.002Z,8.38
2022-11-16T04:22:32.796Z,8.38
2022-11-16T04:24:14.136Z,8.40
2022-11-16T04:25:45.855Z,8.40
2022-11-16T04:27:35.873Z,8.40
2022-11-16T04:29:07.484Z,8.40
2022-11-16T04:30:58.241Z,8.41
2022-11-16T04:32:49.695Z,8.45
2022-11-16T04:34:40.067Z,8.42
2022-11-16T04:36:33.595Z,8.45
2022-11-16T04:38:06.804Z,8.42
2022-11-16T04:39:39.096Z,8.38
2022-11-16T04:41:30.894Z,8.38
2022-11-16T04:43:04.183Z,8.36
2022-11-16T04:44:55.379Z,8.33
2022-11-16T04:46:46.224Z,8.31
2022-11-16T04:48:19.009Z,8.32
2022-11-16T04:49:50.628Z,8.37
2022-11-16T04:51:23.727Z,8.37
2022-11-16T04:52:55.308Z,8.36
2022-11-16T04:54:26.913Z,8.39
2022-11-16T04:56:00.868Z,8.33
2022-11-16T04:57:32.777Z,8.30
2022-11-16T04:59:04.397Z,8.32
2022-11-16T05:00:36.045Z,8.29
2022-11-16T05:02:10.411Z,8.26
2022-11-16T05:03:42.031Z,8.25
2022-11-16T05:05:13.749Z,8.23
2022-11-16T05:06:47.743Z,8.24
2022-11-16T05:08:19.560Z,8.23
2022-11-16T05:09:51.360Z,8.22
2022-11-16T05:11:23.762Z,8.14
2022-11-16T05:12:55.343Z,8.16
2022-11-16T05:14:27.017Z,8.16
2022-11-16T05:15:58.686Z,8.20
2022-11-16T05:17:30.358Z,8.15
2022-11-16T05:19:20.518Z,8.16
2022-11-16T05:21:00.879Z,8.19
2022-11-16T05:22:33.846Z,8.17
2022-11-16T05:24:24.548Z,8.15
2022-11-16T05:25:56.204Z,8.14
2022-11-16T05:27:28.305Z,8.04
2022-11-16T05:28:59.888Z,7.88
2022-11-16T05:30:31.507Z,7.82
2022-11-16T05:32:03.248Z,7.79
2022-11-16T05:33:34.905Z,7.91
2022-11-16T05:35:07.107Z,7.81
2022-11-16T05:36:38.704Z,7.84
2022-11-16T05:38:11.875Z,7.82
2022-11-16T05:39:43.578Z,7.94
2022-11-16T05:41:15.190Z,7.99
2022-11-16T05:42:46.765Z,8.04
2022-11-16T05:44:18.486Z,8.00
2022-11-16T05:45:50.142Z,7.94
2022-11-16T05:47:21.827Z,7.94
2022-11-16T05:48:53.491Z,7.91
2022-11-16T05:50:25.158Z,7.96
2022-11-16T05:51:56.773Z,7.71
2022-11-16T05:53:29.788Z,7.83
2022-11-16T05:55:01.470Z,7.80
2022-11-16T05:56:33.225Z,7.84
2022-11-16T05:58:05.099Z,7.80
2022-11-16T05:59:36.801Z,7.89
2022-11-16T06:01:08.415Z,7.93
2022-11-16T06:02:40.106Z,7.96
2022-11-16T06:04:11.995Z,7.97
2022-11-16T06:05:43.673Z,7.96
2022-11-16T06:07:15.395Z,7.91
2022-11-16T06:08:48.448Z,7.79
2022-11-16T06:10:20.073Z,7.89
2022-11-16T06:11:51.741Z,7.92
2022-11-16T06:13:23.454Z,7.94
2022-11-16T06:14:55.387Z,7.95
2022-11-16T06:16:27.524Z,7.96
2022-11-16T06:18:00.109Z,8.01
2022-11-16T06:19:32.685Z,8.28
2022-11-16T06:21:04.997Z,8.18
2022-11-16T06:22:36.655Z,8.07
2022-11-16T06:24:09.759Z,8.03
2022-11-16T06:25:41.476Z,7.92
2022-11-16T06:27:13.125Z,7.90
2022-11-16T06:28:44.965Z,7.91
2022-11-16T06:30:16.854Z,7.88
2022-11-16T06:31:48.505Z,7.84
2022-11-16T06:33:20.167Z,7.91
2022-11-16T06:34:51.825Z,7.88
2022-11-16T06:36:23.421Z,7.89
2022-11-16T06:37:55.565Z,7.84
2022-11-16T06:39:28.659Z,7.71
2022-11-16T06:41:01.428Z,7.82
2022-11-16T06:42:33.048Z,7.76
2022-11-16T06:44:04.648Z,7.69
2022-11-16T06:45:36.250Z,7.58
2022-11-16T06:47:07.863Z,7.63
2022-11-16T06:48:39.488Z,7.90
2022-11-16T06:50:11.379Z,7.95
2022-11-16T06:51:43.025Z,8.16
2022-11-16T06:53:14.650Z,8.29
2022-11-16T06:54:47.620Z,8.35
2022-11-16T06:56:19.540Z,8.41
2022-11-16T06:57:51.130Z,8.45
2022-11-16T06:59:22.790Z,8.52
2022-11-16T07:00:54.430Z,8.42
2022-11-16T07:02:26.084Z,8.35
2022-11-16T07:03:57.819Z,8.37
2022-11-16T07:05:29.573Z,8.40
2022-11-16T07:07:01.306Z,8.40
2022-11-16T07:08:35.012Z,8.36
2022-11-16T07:10:09.381Z,8.45
2022-11-16T07:11:41.019Z,8.52
2022-11-16T07:13:12.634Z,8.56
2022-11-16T07:14:45.445Z,8.50
2022-11-16T07:16:17.054Z,8.41
2022-11-16T07:17:48.669Z,8.43
2022-11-16T07:19:20.245Z,8.54
2022-11-16T07:20:52.680Z,8.67
2022-11-16T07:22:24.301Z,8.69
2022-11-16T07:23:55.947Z,8.65
2022-11-16T07:25:29.080Z,8.65
2022-11-16T07:27:00.884Z,8.68
2022-11-16T07:28:32.813Z,8.60
2022-11-16T07:30:05.835Z,8.61
2022-11-16T07:31:37.976Z,8.65
2022-11-16T07:33:09.630Z,8.74
2022-11-16T07:34:41.241Z,8.74
2022-11-16T07:36:13.758Z,8.71
2022-11-16T07:37:45.409Z,8.65
2022-11-16T07:39:17.045Z,8.61
2022-11-16T07:40:50.090Z,8.64
2022-11-16T07:42:21.716Z,8.63
2022-11-16T07:43:53.564Z,8.66
2022-11-16T07:45:25.319Z,8.73
2022-11-16T07:46:57.004Z,8.76
2022-11-16T07:48:28.710Z,8.80
2022-11-16T07:50:00.345Z,8.78
2022-11-16T07:51:32.108Z,8.77
2022-11-16T07:53:03.728Z,8.72
2022-11-16T07:54:35.397Z,8.71
2022-11-16T07:56:08.893Z,8.73
2022-11-16T07:57:40.868Z,8.75
2022-11-16T07:59:12.531Z,8.75
2022-11-16T08:00:44.192Z,8.76
2022-11-16T08:02:15.882Z,8.77
2022-11-16T08:03:48.102Z,8.81
2022-11-16T08:05:19.751Z,8.80
2022-11-16T08:06:51.928Z,8.85
2022-11-16T08:08:23.674Z,8.85
2022-11-16T08:09:55.560Z,8.84
2022-11-16T08:11:28.651Z,8.87
2022-11-16T08:13:00.303Z,8.91
2022-11-16T08:14:31.963Z,9.01
2022-11-16T08:16:04.564Z,9.00
2022-11-16T08:17:36.209Z,8.99
2022-11-16T08:19:07.906Z,9.00
2022-11-16T08:20:39.584Z,9.07
2022-11-16T08:22:11.189Z,9.03
2022-11-16T08:23:42.930Z,9.00
2022-11-16T08:25:14.584Z,9.00
2022-11-16T08:26:47.702Z,8.96
2022-11-16T08:28:19.345Z,8.96
2022-11-16T08:29:51.032Z,8.95
2022-11-16T08:31:24.138Z,8.93
2022-11-16T08:32:55.788Z,8.95
2022-11-16T08:34:27.443Z,8.93
2022-11-16T08:36:07.064Z,8.89
2022-11-16T08:37:41.196Z,8.92
2022-11-16T08:39:12.829Z,8.90
2022-11-16T08:40:44.605Z,8.91
2022-11-16T08:42:17.674Z,8.95
2022-11-16T08:43:50.823Z,8.95
2022-11-16T08:45:22.666Z,8.96
2022-11-16T08:46:54.337Z,8.98
2022-11-16T08:48:26.038Z,9.05
2022-11-16T08:49:57.726Z,9.03
2022-11-16T08:51:29.433Z,9.03
2022-11-16T08:53:01.147Z,9.04
2022-11-16T08:54:32.849Z,9.03
2022-11-16T08:56:05.345Z,8.97
2022-11-16T08:57:38.375Z,9.00
2022-11-16T08:59:10.030Z,9.05
2022-11-16T09:00:41.755Z,9.06
2022-11-16T09:02:13.638Z,9.10
2022-11-16T09:03:45.422Z,9.13
2022-11-16T09:05:17.203Z,9.15
2022-11-16T09:06:48.921Z,9.20
2022-11-16T09:08:20.687Z,9.22
2022-11-16T09:09:52.381Z,9.33
2022-11-16T09:11:24.991Z,9.32
2022-11-16T09:12:58.007Z,9.45
2022-11-16T09:14:30.679Z,9.45
2022-11-16T09:16:02.412Z,9.47
2022-11-16T09:17:34.110Z,9.51
2022-11-16T09:19:05.741Z,9.45
2022-11-16T09:20:37.396Z,9.56
2022-11-16T09:22:09.110Z,9.52
2022-11-16T09:23:40.734Z,9.58
2022-11-16T09:25:12.474Z,9.56
2022-11-16T09:26:44.155Z,9.66
2022-11-16T09:28:17.265Z,9.73
2022-11-16T09:29:48.988Z,9.68
2022-11-16T09:31:23.543Z,9.56
2022-11-16T09:32:57.027Z,9.53
2022-11-16T09:34:28.718Z,9.55
2022-11-16T09:36:06.903Z,9.59
2022-11-16T09:37:38.643Z,9.55
2022-11-16T09:39:30.723Z,9.50
2022-11-16T09:41:09.519Z,9.47
2022-11-16T09:42:48.437Z,9.57
2022-11-16T09:44:33.325Z,9.57
2022-11-16T09:46:11.528Z,9.58
2022-11-16T09:47:49.596Z,9.63
2022-11-16T09:49:22.792Z,9.70
2022-11-16T09:50:55.154Z,9.74
2022-11-16T09:52:28.565Z,9.73
2022-11-16T09:54:02.087Z,9.80
2022-11-16T09:55:35.256Z,9.86
2022-11-16T09:57:12.396Z,9.91
2022-11-16T09:58:48.351Z,9.79
2022-11-16T10:00:23.696Z,9.68
2022-11-16T10:01:57.161Z,9.69
2022-11-16T10:03:28.865Z,9.72
2022-11-16T10:05:01.919Z,9.74
2022-11-16T10:06:40.149Z,9.87
2022-11-16T10:08:14.224Z,10.03
2022-11-16T10:09:46.663Z,10.08
2022-11-16T10:11:48.738Z,10.09
2022-11-16T10:13:27.116Z,10.10
2022-11-16T10:15:06.656Z,10.11
2022-11-16T10:16:40.490Z,10.08
2022-11-16T10:18:20.747Z,10.16
2022-11-16T10:19:53.792Z,10.15
2022-11-16T10:21:35.293Z,10.16
2022-11-16T10:23:10.118Z,10.19
2022-11-16T10:24:47.651Z,10.22
2022-11-16T10:26:24.936Z,10.18
2022-11-16T10:28:10.518Z,10.17
2022-11-16T10:29:46.858Z,10.18
2022-11-16T10:31:21.368Z,10.15
2022-11-16T10:32:55.135Z,10.14
2022-11-16T10:34:28.616Z,10.19
2022-11-16T10:36:00.299Z,10.18
2022-11-16T10:37:32.467Z,10.20
2022-11-16T10:39:08.457Z,10.19
2022-11-16T10:40:40.731Z,10.19
2022-11-16T10:42:13.462Z,10.15
2022-11-16T10:43:45.632Z,10.10
2022-11-16T10:45:18.479Z,10.10
2022-11-16T10:46:55.954Z,10.14
2022-11-16T10:48:37.040Z,10.10
2022-11-16T10:50:22.071Z,10.21
2022-11-16T10:51:53.711Z,10.26
2022-11-16T10:53:29.261Z,10.32
2022-11-16T10:55:00.880Z,10.34
2022-11-16T10:56:37.248Z,10.35
2022-11-16T10:58:11.864Z,10.42
2022-11-16T10:59:44.335Z,10.34
2022-11-16T11:01:35.928Z,10.38
2022-11-16T11:03:07.864Z,10.41
2022-11-16T11:04:41.000Z,10.39
2022-11-16T11:06:13.833Z,10.39
2022-11-16T11:07:46.814Z,10.38
2022-11-16T11:09:26.910Z,10.36
2022-11-16T11:11:01.862Z,10.39
2022-11-16T11:12:39.330Z,10.41
2022-11-16T11:14:12.290Z,10.41
2022-11-16T11:15:44.675Z,10.46
2022-11-16T11:17:17.389Z,10.44
2022-11-16T11:18:51.332Z,10.47
2022-11-16T11:20:24.574Z,10.47
2022-11-16T11:21:56.778Z,10.49
2022-11-16T11:23:28.446Z,10.44
2022-11-16T11:25:01.396Z,10.49
2022-11-16T11:26:36.943Z,10.53
2022-11-16T11:28:18.888Z,10.56
2022-11-16T11:29:51.708Z,10.65
2022-11-16T11:31:27.121Z,10.72
2022-11-16T11:32:58.790Z,10.71
2022-11-16T11:34:31.413Z,10.70
2022-11-16T11:36:05.470Z,10.79
2022-11-16T11:37:37.461Z,10.80
2022-11-16T11:39:26.894Z,10.86
2022-11-16T11:40:59.605Z,10.88
2022-11-16T11:42:31.192Z,10.94
2022-11-16T11:44:05.816Z,11.02
2022-11-16T11:45:41.775Z,11.09
2022-11-16T11:49:23.680Z,11.06
2022-11-16T11:50:55.567Z,11.14
2022-11-16T11:52:33.465Z,10.88
2022-11-16T11:54:05.174Z,10.99
2022-11-16T11:55:36.875Z,10.93
2022-11-16T11:57:09.408Z,11.01
2022-11-16T11:58:41.601Z,11.02
2022-11-16T12:00:14.672Z,10.99
2022-11-16T12:02:08.795Z,10.97
2022-11-16T12:03:58.083Z,11.02
2022-11-16T12:05:42.426Z,10.97
2022-11-16T12:07:19.324Z,10.97
2022-11-16T12:09:02.757Z,11.06
2022-11-16T12:10:37.504Z,11.07
2022-11-16T12:12:16.248Z,11.00
2022-11-16T12:14:00.489Z,10.93
2022-11-16T12:15:39.712Z,10.90
2022-11-16T12:17:13.601Z,11.03
2022-11-16T12:18:51.981Z,11.07
2022-11-16T12:20:29.942Z,11.13
2022-11-16T12:22:07.420Z,11.06
2022-11-16T12:24:04.445Z,11.08
2022-11-16T12:25:38.262Z,11.13
2022-11-16T12:27:15.215Z,10.94
2022-11-16T12:28:59.670Z,11.03
2022-11-16T12:30:32.527Z,11.05
2022-11-16T12:32:12.605Z,10.91
2022-11-16T12:33:46.077Z,10.88
2022-11-16T12:35:28.628Z,10.85
2022-11-16T12:37:03.780Z,10.80
2022-11-16T12:38:40.911Z,10.94
2022-11-16T12:40:23.729Z,11.21
2022-11-16T12:42:11.909Z,11.29
2022-11-16T12:43:45.816Z,11.20
2022-11-16T12:45:32.265Z,11.03
2022-11-16T12:47:06.762Z,11.02
2022-11-16T12:49:30.312Z,11.01
2022-11-16T12:51:04.414Z,11.02
2022-11-16T12:53:06.558Z,11.25
2022-11-16T12:55:23.706Z,11.48
2022-11-16T12:56:48.638Z,11.80
2022-11-16T12:58:27.247Z,11.79
2022-11-16T13:00:06.002Z,11.82
2022-11-16T13:01:39.692Z,11.72
2022-11-16T13:03:14.936Z,11.79
2022-11-16T13:04:47.994Z,11.68
2022-11-16T13:06:20.519Z,11.70
2022-11-16T13:07:53.518Z,11.60
2022-11-16T13:09:26.199Z,11.56
2022-11-16T13:11:04.645Z,11.26
2022-11-16T13:12:38.705Z,11.10
2022-11-16T13:14:12.932Z,11.28
2022-11-16T13:15:46.382Z,11.23
2022-11-16T13:17:19.724Z,11.25
2022-11-16T13:18:51.417Z,11.33
2022-11-16T13:20:32.814Z,11.32
2022-11-16T13:22:06.939Z,11.34
2022-11-16T13:23:45.394Z,11.21
2022-11-16T13:25:18.705Z,11.33
2022-11-16T13:26:56.272Z,11.23
2022-11-16T13:28:33.495Z,11.57
2022-11-16T13:30:17.029Z,11.79
2022-11-16T13:31:51.489Z,12.33
2022-11-16T13:33:30.317Z,12.80
2022-11-16T13:35:03.766Z,12.91
2022-11-16T13:36:43.533Z,13.26
2022-11-16T13:38:15.283Z,13.35
2022-11-16T13:40:09.175Z,13.48
2022-11-16T13:41:41.383Z,12.99
2022-11-16T13:43:17.697Z,13.05
2022-11-16T13:44:51.746Z,13.41
2022-11-16T13:46:54.210Z,13.60
2022-11-16T13:48:17.668Z,13.70
2022-11-16T13:49:51.125Z,13.79
2022-11-16T13:51:23.143Z,13.64
2022-11-16T13:54:53.995Z,13.24
2022-11-16T13:56:29.275Z,13.48
2022-11-16T13:58:02.342Z,13.67
2022-11-16T13:59:35.091Z,14.28
2022-11-16T14:01:10.647Z,14.09
2022-11-16T14:02:42.392Z,13.63
2022-11-16T14:04:50.450Z,13.24
2022-11-16T14:06:57.256Z,13.21
2022-11-16T14:08:45.400Z,13.27
2022-11-16T14:10:53.300Z,13.49
2022-11-16T14:12:54.951Z,13.72
2022-11-16T14:15:03.589Z,13.76
2022-11-16T14:16:49.888Z,13.74
2022-11-16T14:18:34.720Z,13.05
2022-11-16T14:20:09.419Z,13.05
2022-11-16T14:21:48.436Z,13.28
2022-11-16T14:23:59.052Z,13.15
2022-11-16T14:25:39.090Z,13.10
2022-11-16T14:27:18.391Z,13.20
2022-11-16T14:29:16.673Z,13.36
2022-11-16T14:30:59.013Z,12.77
2022-11-16T14:32:42.668Z,12.52
2022-11-16T14:34:18.790Z,12.48
2022-11-16T14:35:53.889Z,12.35
2022-11-16T14:37:31.845Z,12.20
2022-11-16T14:39:33.563Z,12.35
2022-11-16T14:41:09.156Z,12.04
2022-11-16T14:43:14.866Z,12.08
2022-11-16T14:44:41.068Z,11.78
2022-11-16T14:46:17.542Z,11.91
2022-11-16T14:47:50.619Z,11.81
2022-11-16T14:49:22.461Z,11.73
2022-11-16T14:51:04.989Z,11.63
2022-11-16T14:52:37.834Z,11.73
2022-11-16T14:54:13.425Z,11.66
2022-11-16T14:55:46.222Z,11.61
2022-11-16T14:57:19.129Z,11.43
2022-11-16T14:58:52.054Z,11.31
2022-11-16T15:00:30.266Z,11.30
2022-11-16T15:02:15.106Z,11.27
2022-11-16T15:03:53.091Z,11.45
2022-11-16T15:05:29.585Z,11.38
2022-11-16T15:07:02.351Z,11.49
2022-11-16T15:08:37.106Z,11.60
2022-11-16T15:10:11.166Z,11.51
2022-11-16T15:12:01.305Z,11.29
2022-11-16T15:13:33.234Z,10.99
2022-11-16T15:15:07.031Z,10.94
2022-11-16T15:16:50.874Z,10.87
2022-11-16T15:18:26.540Z,10.74
2022-11-16T15:20:18.039Z,10.66
2022-11-16T15:21:53.270Z,10.63
2022-11-16T15:23:30.338Z,10.54
2022-11-16T15:25:04.918Z,10.48
2022-11-16T15:26:37.700Z,10.45
2022-11-16T15:28:17.006Z,10.49
2022-11-16T15:29:48.686Z,10.45
2022-11-16T15:31:20.368Z,10.36
2022-11-16T15:32:52.369Z,10.32
2022-11-16T15:34:25.859Z,10.25
2022-11-16T15:35:59.000Z,10.28
2022-11-16T15:37:30.758Z,10.17
2022-11-16T15:39:02.590Z,10.15
2022-11-16T15:40:34.318Z,10.09
2022-11-16T15:42:06.070Z,10.15
2022-11-16T15:43:49.809Z,10.07
2022-11-16T15:45:30.832Z,10.02
2022-11-16T15:47:02.459Z,10.03
2022-11-16T15:48:34.885Z,9.96
2022-11-16T15:50:11.003Z,10.02
2022-11-16T15:51:44.444Z,9.96
2022-11-16T15:53:33.172Z,9.88
2022-11-16T15:55:05.685Z,9.81
2022-11-16T15:56:37.845Z,9.75
2022-11-16T15:58:14.615Z,9.76
2022-11-16T15:59:47.561Z,9.71
2022-11-16T16:01:19.281Z,9.65
2022-11-16T16:02:50.975Z,9.50
2022-11-16T16:04:23.061Z,9.42
2022-11-16T16:05:54.945Z,9.26
2022-11-16T16:07:40.221Z,9.28
2022-11-16T16:09:18.379Z,9.35
2022-11-16T16:10:57.900Z,9.31
2022-11-16T16:12:29.567Z,9.16
2022-11-16T16:14:02.120Z,9.34
2022-11-16T16:15:36.502Z,9.21
2022-11-16T16:17:08.262Z,9.24
2022-11-16T16:18:41.994Z,9.23
2022-11-16T16:20:18.162Z,9.26
2022-11-16T16:21:49.782Z,9.28
2022-11-16T16:23:24.791Z,9.14
2022-11-16T16:24:56.542Z,9.15
2022-11-16T16:26:28.344Z,9.04
2022-11-16T16:27:59.992Z,8.94
2022-11-16T16:29:31.733Z,8.83
2022-11-16T16:31:03.320Z,8.87
2022-11-16T16:32:35.920Z,8.93
2022-11-16T16:34:11.471Z,8.80
2022-11-16T16:35:45.060Z,8.77
2022-11-16T16:37:16.722Z,8.64
2022-11-16T16:38:50.339Z,8.59
2022-11-16T16:40:22.024Z,8.63
2022-11-16T16:41:53.654Z,8.55
2022-11-16T16:43:25.441Z,8.57
2022-11-16T16:44:57.419Z,8.56
2022-11-16T16:46:29.406Z,8.37
2022-11-16T16:48:01.308Z,8.47
2022-11-16T16:49:33.151Z,8.50
2022-11-16T16:51:05.075Z,8.51
2022-11-16T16:52:39.785Z,8.48
2022-11-16T16:54:14.597Z,8.51
2022-11-16T16:55:47.797Z,8.50
2022-11-16T16:57:19.557Z,8.50
2022-11-16T16:58:51.181Z,8.38
2022-11-16T17:00:25.734Z,8.42
2022-11-16T17:01:57.615Z,8.38
2022-11-16T17:03:30.638Z,8.33
2022-11-16T17:05:02.321Z,8.29
2022-11-16T17:06:34.049Z,8.16
2022-11-16T17:08:06.074Z,7.99
2022-11-16T17:09:39.436Z,8.14
2022-11-16T17:11:14.833Z,8.21
2022-11-16T17:12:47.123Z,8.14
2022-11-16T17:14:21.447Z,8.08
2022-11-16T17:15:53.193Z,8.01
2022-11-16T17:17:24.983Z,8.02
2022-11-16T17:18:56.800Z,8.00
2022-11-16T17:20:28.697Z,8.06
2022-11-16T17:22:00.517Z,8.02
2022-11-16T17:23:32.597Z,8.00
2022-11-16T17:25:06.512Z,8.02
2022-11-16T17:26:40.238Z,7.96
2022-11-16T17:28:15.298Z,7.87
2022-11-16T17:29:47.433Z,7.82
2022-11-16T17:31:19.465Z,7.75
2022-11-16T17:32:54.701Z,7.79
2022-11-16T17:34:26.804Z,7.82
2022-11-16T17:36:01.531Z,7.80
2022-11-16T17:37:33.403Z,7.74
2022-11-16T17:39:08.283Z,7.72
2022-11-16T17:40:41.658Z,7.72
2022-11-16T17:42:18.071Z,7.77
2022-11-16T17:43:51.979Z,7.69
2022-11-16T17:45:24.442Z,7.64
2022-11-16T17:46:56.440Z,7.68
2022-11-16T17:48:30.285Z,7.62
2022-11-16T17:50:03.441Z,7.32
2022-11-16T17:51:35.225Z,7.45
2022-11-16T17:53:07.412Z,7.54
2022-11-16T17:54:39.266Z,7.51
2022-11-16T17:56:12.437Z,7.51
2022-11-16T17:57:44.284Z,7.55
2022-11-16T17:59:16.312Z,7.41
2022-11-16T18:00:48.489Z,7.41
2022-11-16T18:02:20.386Z,7.35
2022-11-16T18:03:52.279Z,7.13
2022-11-16T18:05:24.196Z,7.27
2022-11-16T18:06:56.168Z,7.32
2022-11-16T18:08:28.063Z,7.33
2022-11-16T18:10:05.124Z,7.32
2022-11-16T18:11:44.335Z,7.31
2022-11-16T18:13:16.181Z,7.33
2022-11-16T18:15:13.577Z,7.25
2022-11-16T18:16:42.421Z,7.31
2022-11-16T18:18:14.180Z,7.14
2022-11-16T18:19:45.991Z,7.12
2022-11-16T18:21:20.677Z,7.00
2022-11-16T18:22:53.103Z,7.05
2022-11-16T18:24:25.035Z,6.96
2022-11-16T18:26:09.384Z,7.02
2022-11-16T18:27:42.756Z,7.02
2022-11-16T18:29:16.082Z,7.00
2022-11-16T18:30:48.371Z,7.02
2022-11-16T18:35:26.120Z,7.24
2022-11-16T18:36:57.835Z,7.24
2022-11-16T18:40:29.135Z,7.14
2022-11-16T18:42:00.836Z,7.16
2022-11-16T18:44:59.110Z,7.13
2022-11-16T18:46:20.184Z,7.05
2022-11-16T18:47:55.580Z,6.97
2022-11-16T18:49:27.304Z,7.00
2022-11-16T18:50:59.329Z,6.86
2022-11-16T18:52:31.013Z,6.93
2022-11-16T18:54:03.028Z,6.90
2022-11-16T18:55:34.787Z,6.90
2022-11-16T18:57:11.479Z,7.08
2022-11-16T18:58:52.478Z,7.15
2022-11-16T19:00:26.072Z,7.13
2022-11-16T19:01:57.837Z,7.15
2022-11-16T19:03:29.794Z,7.20
2022-11-16T19:05:02.205Z,7.31
2022-11-16T19:06:34.275Z,7.18
2022-11-16T19:08:09.282Z,7.20
2022-11-16T19:09:41.042Z,7.20
2022-11-16T19:11:13.493Z,7.23
2022-11-16T19:12:45.181Z,7.14
2022-11-16T19:14:16.920Z,7.17
2022-11-16T19:15:50.306Z,7.24
2022-11-16T19:17:24.626Z,7.20
2022-11-16T19:18:56.590Z,7.17
2022-11-16T19:20:28.406Z,7.11
2022-11-16T19:22:00.215Z,7.17
2022-11-16T19:23:35.843Z,7.05
2022-11-16T19:25:08.985Z,7.11
2022-11-16T19:26:50.068Z,7.22
2022-11-16T19:28:24.712Z,7.17
2022-11-16T19:29:56.443Z,7.15
2022-11-16T19:31:29.905Z,7.05
2022-11-16T19:33:02.358Z,7.04
2022-11-16T19:34:34.360Z,7.07
2022-11-16T19:36:10.427Z,7.10
2022-11-16T19:37:42.489Z,7.11
2022-11-16T19:39:14.229Z,7.06
2022-11-16T19:40:46.191Z,7.18
2022-11-16T19:42:18.144Z,7.12
2022-11-16T19:43:52.601Z,7.18
2022-11-16T19:45:24.564Z,7.23
2022-11-16T19:46:57.663Z,7.03
2022-11-16T19:48:30.215Z,7.00
2022-11-16T19:50:02.371Z,7.11
2022-11-16T19:51:34.291Z,7.14
2022-11-16T19:53:09.255Z,7.07
2022-11-16T19:54:41.173Z,7.09
2022-11-16T19:56:13.830Z,7.09
2022-11-16T19:57:45.709Z,7.01
2022-11-16T19:59:17.655Z,7.01
2022-11-16T20:00:49.491Z,6.87
2022-11-16T20:02:23.098Z,6.84
2022-11-16T20:03:55.556Z,6.89
2022-11-16T20:05:29.996Z,6.64
2022-11-16T20:07:01.828Z,6.82
2022-11-16T20:08:33.611Z,6.95
2022-11-16T20:10:08.639Z,7.04
2022-11-16T20:11:41.073Z,6.94
2022-11-16T20:13:13.095Z,6.93
2022-11-16T20:14:45.147Z,6.99
2022-11-16T20:16:17.715Z,7.01
2022-11-16T20:17:50.914Z,6.97
2022-11-16T20:19:22.777Z,6.94
2022-11-16T20:20:54.760Z,6.93
2022-11-16T20:23:10.667Z,6.75
2022-11-16T20:24:44.938Z,6.89
2022-11-16T20:26:18.678Z,6.72
2022-11-16T20:27:53.446Z,6.62
2022-11-16T20:29:25.210Z,6.58
2022-11-16T20:30:56.961Z,6.70
2022-11-16T20:32:28.672Z,6.77
2022-11-16T20:34:02.767Z,6.85
2022-11-16T20:35:35.027Z,6.80
2022-11-16T20:37:09.330Z,6.76
2022-11-16T20:38:41.260Z,6.67
2022-11-16T20:40:13.909Z,6.75
2022-11-16T20:41:45.765Z,6.77
2022-11-16T20:43:26.470Z,6.74
2022-11-16T20:44:58.236Z,6.81
2022-11-16T20:46:31.165Z,6.82
2022-11-16T20:48:04.059Z,6.85
2022-11-16T20:50:08.381Z,6.91
2022-11-16T20:52:23.286Z,6.84
2022-11-16T20:56:19.097Z,6.67
2022-11-16T20:58:00.027Z,6.68
2022-11-16T20:59:47.498Z,6.70
2022-11-16T21:01:32.166Z,6.74
2022-11-16T21:05:25.984Z,6.76
2022-11-16T21:07:08.077Z,6.74
2022-11-16T21:08:50.561Z,6.74
2022-11-16T21:10:24.806Z,6.64
2022-11-16T21:12:24.788Z,6.62
2022-11-16T21:14:17.673Z,6.69
2022-11-16T21:15:58.963Z,6.79
2022-11-16T21:17:30.775Z,6.78
2022-11-16T21:19:02.594Z,6.79
2022-11-16T21:20:39.922Z,6.79
2022-11-16T21:22:11.592Z,6.83
2022-11-16T21:23:45.386Z,6.81
2022-11-16T21:25:18.701Z,6.77
2022-11-16T21:26:50.792Z,6.78
2022-11-16T21:28:25.608Z,6.81
2022-11-16T21:30:01.276Z,6.75
2022-11-16T21:31:36.532Z,6.77
2022-11-16T21:33:08.548Z,6.87